Portada
METAR-TAF:

METAR-TAF

Aeropuertos :

Tamworth, Australia

latitud: 31-05S, longitud: 150-50E, altitud: 410 m

Observación

El informe se hizo hace 20 minutos, a las 04:30 UTC
Viento 6 kt del oeste, variando entre suroeste y noroeste
Temperatura 16°C
Humedad 36%
Presión 1025 hPa
Visibilidad 10 km o más

METAR: YSTW 230430Z AUTO 26006KT 230V310 9999 // NCD 16/01 Q1025 RF00.0/000.0

Hora: 14:50 (04:50 UTC)

Pronóstico

El informe se hizo hace 5 horas y 19 minutos, a las 23:31 UTC
Pronóstico válido del 23 a las 00 UTC al 23 a las 18 UTC
Viento 6 kt del oeste-suroeste
Visibilidad 10 km o más
sin nubes por debajo de 1500 m y sin presencia de cumulonimbus.
A partir de las 23 a las 0900 UTC
Viento 4 kt del sureste
Visibilidad 10 km o más
sin nubes por debajo de 1500 m y sin presencia de cumulonimbus.

TAF: YSTW 222331Z 2300/2318 24006KT CAVOK FM230900 14004KT CAVOK

Observaciones y pronósticos meteorológicos de más de 4000 aeropuertos (mensajes METAR y TAF).

Los puntos amarillos y rojos representan las estaciones disponibles.

Ponga el ratón en el punto deseado para ver el nombre de la estación.

Haga clic para ver las observaciones y los pronósticos meteorológicos.

Para cambiar el mapa : haga clic en los botones verdes con una cruz de color negro para hacer un zoom, en el botón verde con un guión para alejar o en las flechas verdes para mapas adyacentes.


METAR-TAF: